sensor_id;sensor_type;location;lat;lon;timestamp;pressure;altitude;pressure_sealevel;temperature;humidity
7018;BME280;3549;42.162;24.726;2022-09-03T00:01:12;98758.06;;;19.17;100.00
7018;BME280;3549;42.162;24.726;2022-09-03T00:03:44;98844.47;;;19.62;100.00
7018;BME280;3549;42.162;24.726;2022-09-03T00:06:22;98764.06;;;19.03;100.00
7018;BME280;3549;42.162;24.726;2022-09-03T00:08:59;98687.13;;;18.66;100.00
7018;BME280;3549;42.162;24.726;2022-09-03T00:11:38;98794.84;;;19.15;100.00
7018;BME280;3549;42.162;24.726;2022-09-03T00:14:36;98834.22;;;19.30;100.00
7018;BME280;3549;42.162;24.726;2022-09-03T00:17:13;98755.50;;;18.96;100.00
7018;BME280;3549;42.162;24.726;2022-09-03T00:22:52;98835.91;;;19.15;100.00
7018;BME280;3549;42.162;24.726;2022-09-03T00:25:25;98883.00;;;19.49;100.00
7018;BME280;3549;42.162;24.726;2022-09-03T00:27:56;98944.63;;;19.82;100.00
7018;BME280;3549;42.162;24.726;2022-09-03T00:30:23;98984.88;;;20.07;100.00
7018;BME280;3549;42.162;24.726;2022-09-03T00:35:30;98979.75;;;19.80;100.00
7018;BME280;3549;42.162;24.726;2022-09-03T00:37:58;98809.38;;;18.84;100.00
7018;BME280;3549;42.162;24.726;2022-09-03T00:43:14;98888.94;;;19.01;100.00
7018;BME280;3549;42.162;24.726;2022-09-03T00:48:34;98971.94;;;19.27;100.00
7018;BME280;3549;42.162;24.726;2022-09-03T00:56:38;98959.06;;;19.12;100.00
7018;BME280;3549;42.162;24.726;2022-09-03T01:10:53;98972.75;;;19.08;100.00
7018;BME280;3549;42.162;24.726;2022-09-03T01:13:25;98970.16;;;19.05;100.00
7018;BME280;3549;42.162;24.726;2022-09-03T01:21:52;98904.22;;;18.76;100.00
7018;BME280;3549;42.162;24.726;2022-09-03T01:27:43;98971.06;;;19.20;100.00
7018;BME280;3549;42.162;24.726;2022-09-03T01:30:16;98972.78;;;19.21;100.00
7018;BME280;3549;42.162;24.726;2022-09-03T01:33:00;98848.56;;;18.47;100.00
7018;BME280;3549;42.162;24.726;2022-09-03T01:35:46;98947.97;;;19.14;100.00
7018;BME280;3549;42.162;24.726;2022-09-03T01:38:22;98982.19;;;19.21;100.00
7018;BME280;3549;42.162;24.726;2022-09-03T01:41:19;98701.34;;;17.58;100.00
7018;BME280;3549;42.162;24.726;2022-09-03T01:46:39;98955.63;;;19.07;100.00
7018;BME280;3549;42.162;24.726;2022-09-03T01:51:38;98732.16;;;17.75;100.00
7018;BME280;3549;42.162;24.726;2022-09-03T02:02:26;98970.25;;;19.30;100.00
7018;BME280;3549;42.162;24.726;2022-09-03T02:05:06;98971.94;;;19.28;100.00
7018;BME280;3549;42.162;24.726;2022-09-03T02:07:37;98974.53;;;19.37;100.00
7018;BME280;3549;42.162;24.726;2022-09-03T02:10:10;98965.97;;;19.32;100.00
7018;BME280;3549;42.162;24.726;2022-09-03T02:12:37;98905.97;;;18.76;100.00
7018;BME280;3549;42.162;24.726;2022-09-03T02:15:11;98931.66;;;18.97;100.00
7018;BME280;3549;42.162;24.726;2022-09-03T02:17:37;98703.94;;;17.63;100.00
7018;BME280;3549;42.162;24.726;2022-09-03T02:20:07;98827.16;;;18.36;100.00
7018;BME280;3549;42.162;24.726;2022-09-03T02:22:36;98799.75;;;18.16;100.00
7018;BME280;3549;42.162;24.726;2022-09-03T02:25:03;98989.03;;;19.23;100.00
7018;BME280;3549;42.162;24.726;2022-09-03T02:27:29;98889.72;;;18.77;100.00
7018;BME280;3549;42.162;24.726;2022-09-03T02:29:56;98687.75;;;17.73;100.00
7018;BME280;3549;42.162;24.726;2022-09-03T02:32:22;98893.13;;;18.82;100.00
7018;BME280;3549;42.162;24.726;2022-09-03T02:34:48;98913.72;;;18.90;100.00
7018;BME280;3549;42.162;24.726;2022-09-03T02:37:15;99000.19;;;19.34;100.00
7018;BME280;3549;42.162;24.726;2022-09-03T02:39:41;99001.06;;;19.39;100.00
7018;BME280;3549;42.162;24.726;2022-09-03T02:42:09;98946.16;;;18.84;100.00
7018;BME280;3549;42.162;24.726;2022-09-03T02:44:39;99005.28;;;19.09;100.00
7018;BME280;3549;42.162;24.726;2022-09-03T02:47:07;98835.63;;;18.15;100.00
7018;BME280;3549;42.162;24.726;2022-09-03T02:49:33;98962.41;;;18.76;100.00
7018;BME280;3549;42.162;24.726;2022-09-03T02:52:04;98826.16;;;17.97;100.00
7018;BME280;3549;42.162;24.726;2022-09-03T02:54:31;98696.91;;;17.27;100.00
7018;BME280;3549;42.162;24.726;2022-09-03T02:57:00;98772.31;;;17.84;100.00
7018;BME280;3549;42.162;24.726;2022-09-03T02:59:26;98729.41;;;17.48;100.00
7018;BME280;3549;42.162;24.726;2022-09-03T03:01:53;98923.91;;;18.73;100.00
7018;BME280;3549;42.162;24.726;2022-09-03T03:04:18;98815.91;;;18.00;100.00
7018;BME280;3549;42.162;24.726;2022-09-03T03:06:44;98886.22;;;18.51;100.00
7018;BME280;3549;42.162;24.726;2022-09-03T03:09:09;98805.72;;;18.09;100.00
7018;BME280;3549;42.162;24.726;2022-09-03T03:11:35;98979.63;;;19.16;100.00
7018;BME280;3549;42.162;24.726;2022-09-03T03:14:01;98611.25;;;16.65;100.00
7018;BME280;3549;42.162;24.726;2022-09-03T03:16:27;98442.94;;;15.85;100.00
7018;BME280;3549;42.162;24.726;2022-09-03T03:18:55;98761.19;;;17.83;100.00
7018;BME280;3549;42.162;24.726;2022-09-03T03:21:20;98584.06;;;16.73;100.00
7018;BME280;3549;42.162;24.726;2022-09-03T03:23:46;98862.28;;;18.52;100.00
7018;BME280;3549;42.162;24.726;2022-09-03T03:26:14;98933.34;;;18.78;100.00
7018;BME280;3549;42.162;24.726;2022-09-03T03:28:42;98986.44;;;19.08;100.00
7018;BME280;3549;42.162;24.726;2022-09-03T03:33:35;98995.84;;;19.15;100.00
7018;BME280;3549;42.162;24.726;2022-09-03T03:36:09;98830.50;;;18.13;100.00
7018;BME280;3549;42.162;24.726;2022-09-03T03:38:35;98905.00;;;18.48;100.00
7018;BME280;3549;42.162;24.726;2022-09-03T03:41:18;98994.16;;;19.20;100.00
7018;BME280;3549;42.162;24.726;2022-09-03T03:43:46;98927.31;;;18.73;100.00
7018;BME280;3549;42.162;24.726;2022-09-03T03:46:13;98995.88;;;19.21;100.00
7018;BME280;3549;42.162;24.726;2022-09-03T03:48:39;98897.25;;;18.39;100.00
7018;BME280;3549;42.162;24.726;2022-09-03T03:51:07;98930.69;;;18.62;100.00
7018;BME280;3549;42.162;24.726;2022-09-03T03:53:34;98787.66;;;17.81;100.00
7018;BME280;3549;42.162;24.726;2022-09-03T03:56:02;98875.75;;;18.14;100.00
7018;BME280;3549;42.162;24.726;2022-09-03T03:58:29;98932.22;;;18.33;100.00
7018;BME280;3549;42.162;24.726;2022-09-03T04:01:06;98794.50;;;17.82;100.00
7018;BME280;3549;42.162;24.726;2022-09-03T04:03:33;98860.34;;;18.08;100.00
7018;BME280;3549;42.162;24.726;2022-09-03T04:05:59;98595.59;;;16.27;100.00
7018;BME280;3549;42.162;24.726;2022-09-03T04:08:25;98882.53;;;18.02;100.00
7018;BME280;3549;42.162;24.726;2022-09-03T04:10:51;98885.16;;;18.18;100.00
7018;BME280;3549;42.162;24.726;2022-09-03T04:13:17;98629.94;;;16.55;100.00
7018;BME280;3549;42.162;24.726;2022-09-03T04:15:43;98896.31;;;18.29;100.00
7018;BME280;3549;42.162;24.726;2022-09-03T04:18:08;98791.81;;;17.57;100.00
7018;BME280;3549;42.162;24.726;2022-09-03T04:20:37;99023.97;;;18.88;100.00
7018;BME280;3549;42.162;24.726;2022-09-03T04:23:04;99020.56;;;18.88;100.00
7018;BME280;3549;42.162;24.726;2022-09-03T04:25:30;99016.22;;;18.73;100.00
7018;BME280;3549;42.162;24.726;2022-09-03T04:27:56;98637.41;;;16.35;100.00
7018;BME280;3549;42.162;24.726;2022-09-03T04:30:22;98646.91;;;16.48;100.00
7018;BME280;3549;42.162;24.726;2022-09-03T04:32:50;98951.78;;;18.18;100.00
7018;BME280;3549;42.162;24.726;2022-09-03T04:35:23;98843.03;;;17.65;100.00
7018;BME280;3549;42.162;24.726;2022-09-03T04:37:49;99024.69;;;18.60;100.00
7018;BME280;3549;42.162;24.726;2022-09-03T04:40:16;98881.56;;;17.82;100.00
7018;BME280;3549;42.162;24.726;2022-09-03T04:42:42;98799.28;;;17.36;100.00
7018;BME280;3549;42.162;24.726;2022-09-03T04:45:08;98674.06;;;16.43;100.00
7018;BME280;3549;42.162;24.726;2022-09-03T04:47:34;98681.88;;;16.53;100.00
7018;BME280;3549;42.162;24.726;2022-09-03T04:50:04;98945.75;;;18.10;100.00
7018;BME280;3549;42.162;24.726;2022-09-03T04:52:30;98652.88;;;16.50;100.00
7018;BME280;3549;42.162;24.726;2022-09-03T04:54:57;98826.56;;;17.34;100.00
7018;BME280;3549;42.162;24.726;2022-09-03T04:57:22;98406.34;;;14.90;100.00
7018;BME280;3549;42.162;24.726;2022-09-03T04:59:48;99057.31;;;18.88;100.00
7018;BME280;3549;42.162;24.726;2022-09-03T05:02:13;98802.72;;;17.35;100.00
7018;BME280;3549;42.162;24.726;2022-09-03T05:04:40;98800.22;;;17.46;100.00
7018;BME280;3549;42.162;24.726;2022-09-03T05:07:06;98736.06;;;17.16;100.00
7018;BME280;3549;42.162;24.726;2022-09-03T05:09:31;98609.41;;;16.48;100.00
7018;BME280;3549;42.162;24.726;2022-09-03T05:11:57;98824.44;;;17.96;100.00
7018;BME280;3549;42.162;24.726;2022-09-03T05:14:22;98472.69;;;15.78;100.00
7018;BME280;3549;42.162;24.726;2022-09-03T05:16:47;99060.94;;;19.29;100.00
7018;BME280;3549;42.162;24.726;2022-09-03T05:19:14;98815.78;;;17.73;100.00
7018;BME280;3549;42.162;24.726;2022-09-03T05:21:39;98866.41;;;18.21;100.00
7018;BME280;3549;42.162;24.726;2022-09-03T05:24:05;98843.28;;;18.10;100.00
7018;BME280;3549;42.162;24.726;2022-09-03T05:26:32;98917.00;;;18.54;100.00
7018;BME280;3549;42.162;24.726;2022-09-03T05:29:02;99083.34;;;19.77;100.00
7018;BME280;3549;42.162;24.726;2022-09-03T05:31:33;99084.19;;;19.76;100.00
7018;BME280;3549;42.162;24.726;2022-09-03T05:34:01;98701.38;;;17.63;100.00
7018;BME280;3549;42.162;24.726;2022-09-03T05:36:30;99105.66;;;20.01;100.00
7018;BME280;3549;42.162;24.726;2022-09-03T05:38:57;98673.22;;;17.60;100.00
7018;BME280;3549;42.162;24.726;2022-09-03T05:41:23;98836.66;;;18.53;100.00
7018;BME280;3549;42.162;24.726;2022-09-03T05:43:51;99084.25;;;20.07;100.00
7018;BME280;3549;42.162;24.726;2022-09-03T05:46:22;99042.25;;;19.85;100.00
7018;BME280;3549;42.162;24.726;2022-09-03T05:48:54;98672.34;;;17.64;100.00
7018;BME280;3549;42.162;24.726;2022-09-03T05:51:19;98683.56;;;17.95;100.00
7018;BME280;3549;42.162;24.726;2022-09-03T05:53:47;98982.28;;;19.95;100.00
7018;BME280;3549;42.162;24.726;2022-09-03T05:56:15;98741.75;;;18.40;100.00
7018;BME280;3549;42.162;24.726;2022-09-03T05:58:48;98882.97;;;19.36;100.00
7018;BME280;3549;42.162;24.726;2022-09-03T06:01:16;99051.72;;;20.31;100.00
7018;BME280;3549;42.162;24.726;2022-09-03T06:03:43;98972.00;;;19.92;100.00
7018;BME280;3549;42.162;24.726;2022-09-03T06:06:10;99099.66;;;20.79;100.00
7018;BME280;3549;42.162;24.726;2022-09-03T06:08:36;99100.53;;;20.72;100.00
7018;BME280;3549;42.162;24.726;2022-09-03T06:11:05;99109.06;;;21.09;100.00
7018;BME280;3549;42.162;24.726;2022-09-03T06:13:32;99113.34;;;21.08;100.00
7018;BME280;3549;42.162;24.726;2022-09-03T06:16:00;99105.63;;;21.04;100.00
7018;BME280;3549;42.162;24.726;2022-09-03T06:18:26;99110.72;;;21.25;100.00
7018;BME280;3549;42.162;24.726;2022-09-03T06:20:56;99107.22;;;21.41;100.00
7018;BME280;3549;42.162;24.726;2022-09-03T06:23:22;98884.59;;;20.16;100.00
7018;BME280;3549;42.162;24.726;2022-09-03T06:26:05;99011.22;;;21.00;100.00
7018;BME280;3549;42.162;24.726;2022-09-03T06:28:32;98915.44;;;20.33;100.00
7018;BME280;3549;42.162;24.726;2022-09-03T06:31:04;99115.56;;;21.86;100.00
7018;BME280;3549;42.162;24.726;2022-09-03T06:33:32;98935.00;;;20.72;100.00
7018;BME280;3549;42.162;24.726;2022-09-03T06:36:01;98774.16;;;19.98;100.00
7018;BME280;3549;42.162;24.726;2022-09-03T06:38:29;99120.56;;;22.13;100.00
7018;BME280;3549;42.162;24.726;2022-09-03T06:41:01;98633.19;;;19.16;100.00
7018;BME280;3549;42.162;24.726;2022-09-03T06:43:28;98970.75;;;21.29;100.00
7018;BME280;3549;42.162;24.726;2022-09-03T06:45:59;98800.56;;;20.42;100.00
7018;BME280;3549;42.162;24.726;2022-09-03T06:48:26;99036.69;;;21.60;100.00
7018;BME280;3549;42.162;24.726;2022-09-03T06:53:25;98687.03;;;19.53;100.00
7018;BME280;3549;42.162;24.726;2022-09-03T06:55:59;99082.78;;;22.07;100.00
7018;BME280;3549;42.162;24.726;2022-09-03T06:58:34;99122.88;;;22.45;100.00
7018;BME280;3549;42.162;24.726;2022-09-03T07:01:06;99125.94;;;22.92;100.00
7018;BME280;3549;42.162;24.726;2022-09-03T07:03:33;99123.16;;;23.09;100.00
7018;BME280;3549;42.162;24.726;2022-09-03T07:06:00;98978.50;;;22.39;100.00
7018;BME280;3549;42.162;24.726;2022-09-03T07:08:26;98994.16;;;22.17;100.00
7018;BME280;3549;42.162;24.726;2022-09-03T07:10:51;99107.78;;;22.97;100.00
7018;BME280;3549;42.162;24.726;2022-09-03T07:13:17;98958.69;;;22.39;100.00
7018;BME280;3549;42.162;24.726;2022-09-03T07:15:43;99080.88;;;23.17;100.00
7018;BME280;3549;42.162;24.726;2022-09-03T07:18:08;98946.44;;;22.59;100.00
7018;BME280;3549;42.162;24.726;2022-09-03T07:20:34;99004.78;;;23.44;100.00
7018;BME280;3549;42.162;24.726;2022-09-03T07:23:00;98835.44;;;21.94;100.00
7018;BME280;3549;42.162;24.726;2022-09-03T07:25:25;98894.47;;;22.18;100.00
7018;BME280;3549;42.162;24.726;2022-09-03T07:27:51;98949.81;;;22.69;100.00
7018;BME280;3549;42.162;24.726;2022-09-03T07:30:17;98706.44;;;21.28;100.00
7018;BME280;3549;42.162;24.726;2022-09-03T07:32:45;99140.34;;;23.84;100.00
7018;BME280;3549;42.162;24.726;2022-09-03T07:35:11;99152.44;;;23.82;100.00
7018;BME280;3549;42.162;24.726;2022-09-03T07:37:40;98781.13;;;22.06;100.00
7018;BME280;3549;42.162;24.726;2022-09-03T07:40:06;98867.97;;;22.75;100.00
7018;BME280;3549;42.162;24.726;2022-09-03T07:42:31;98969.13;;;23.67;100.00
7018;BME280;3549;42.162;24.726;2022-09-03T07:44:59;98756.06;;;22.17;100.00
7018;BME280;3549;42.162;24.726;2022-09-03T07:47:25;99070.06;;;24.15;100.00
7018;BME280;3549;42.162;24.726;2022-09-03T07:49:50;98752.78;;;22.07;100.00
7018;BME280;3549;42.162;24.726;2022-09-03T07:52:15;98947.75;;;23.56;100.00
7018;BME280;3549;42.162;24.726;2022-09-03T07:54:41;98941.91;;;23.45;100.00
7018;BME280;3549;42.162;24.726;2022-09-03T07:57:06;99034.97;;;24.50;100.00
7018;BME280;3549;42.162;24.726;2022-09-03T07:59:32;98990.19;;;24.47;100.00
7018;BME280;3549;42.162;24.726;2022-09-03T08:01:58;98886.84;;;24.38;100.00
7018;BME280;3549;42.162;24.726;2022-09-03T08:04:23;99001.63;;;24.81;100.00
7018;BME280;3549;42.162;24.726;2022-09-03T08:06:48;98833.13;;;24.04;100.00
7018;BME280;3549;42.162;24.726;2022-09-03T08:09:14;98814.63;;;23.81;100.00
7018;BME280;3549;42.162;24.726;2022-09-03T08:11:41;99138.50;;;25.47;100.00
7018;BME280;3549;42.162;24.726;2022-09-03T08:14:09;99181.19;;;25.72;100.00
7018;BME280;3549;42.162;24.726;2022-09-03T08:16:37;99161.63;;;25.11;100.00
7018;BME280;3549;42.162;24.726;2022-09-03T08:19:04;99153.06;;;25.54;100.00
7018;BME280;3549;42.162;24.726;2022-09-03T08:21:30;98946.44;;;24.78;100.00
7018;BME280;3549;42.162;24.726;2022-09-03T08:23:56;98765.88;;;24.06;100.00
7018;BME280;3549;42.162;24.726;2022-09-03T08:26:33;99161.00;;;25.86;100.00
7018;BME280;3549;42.162;24.726;2022-09-03T08:28:59;99160.56;;;25.66;100.00
7018;BME280;3549;42.162;24.726;2022-09-03T08:31:25;99154.03;;;26.26;100.00
7018;BME280;3549;42.162;24.726;2022-09-03T08:33:53;99154.59;;;26.02;100.00
7018;BME280;3549;42.162;24.726;2022-09-03T08:36:25;99153.84;;;25.97;100.00
7018;BME280;3549;42.162;24.726;2022-09-03T08:38:52;98952.47;;;24.80;100.00
7018;BME280;3549;42.162;24.726;2022-09-03T08:44:25;99151.59;;;25.82;100.00
7018;BME280;3549;42.162;24.726;2022-09-03T08:46:58;99145.16;;;26.36;100.00
7018;BME280;3549;42.162;24.726;2022-09-03T08:52:02;98969.50;;;25.68;74.68
7018;BME280;3549;42.162;24.726;2022-09-03T08:54:31;99027.44;;;26.37;73.28
7018;BME280;3549;42.162;24.726;2022-09-03T08:57:01;98972.16;;;25.65;74.29
7018;BME280;3549;42.162;24.726;2022-09-03T08:59:35;99018.97;;;25.59;75.72
7018;BME280;3549;42.162;24.726;2022-09-03T09:02:32;99136.78;;;27.25;72.08
7018;BME280;3549;42.162;24.726;2022-09-03T09:05:08;99115.41;;;26.50;74.12
7018;BME280;3549;42.162;24.726;2022-09-03T09:08:04;99133.50;;;26.88;73.58
7018;BME280;3549;42.162;24.726;2022-09-03T09:10:36;99137.38;;;26.70;74.60
7018;BME280;3549;42.162;24.726;2022-09-03T09:16:05;98836.53;;;24.91;74.09
7018;BME280;3549;42.162;24.726;2022-09-03T09:21:39;99157.59;;;27.58;71.59
7018;BME280;3549;42.162;24.726;2022-09-03T09:24:18;99146.41;;;27.54;71.00
7018;BME280;3549;42.162;24.726;2022-09-03T09:26:46;99093.28;;;27.03;70.30
7018;BME280;3549;42.162;24.726;2022-09-03T09:29:13;99080.19;;;27.06;70.96
7018;BME280;3549;42.162;24.726;2022-09-03T09:31:40;98949.88;;;26.58;70.10
7018;BME280;3549;42.162;24.726;2022-09-03T09:34:09;99143.81;;;28.39;67.97
7018;BME280;3549;42.162;24.726;2022-09-03T09:37:02;99140.16;;;28.44;67.02
7018;BME280;3549;42.162;24.726;2022-09-03T09:39:28;99130.00;;;27.81;68.24
7018;BME280;3549;42.162;24.726;2022-09-03T09:42:03;98775.31;;;25.88;68.00
7018;BME280;3549;42.162;24.726;2022-09-03T09:44:34;98990.66;;;27.99;64.85
7018;BME280;3549;42.162;24.726;2022-09-03T09:47:04;98972.19;;;28.06;64.00
7018;BME280;3549;42.162;24.726;2022-09-03T09:49:36;99148.22;;;28.64;64.52
7018;BME280;3549;42.162;24.726;2022-09-03T09:52:11;99104.09;;;28.32;65.82
7018;BME280;3549;42.162;24.726;2022-09-03T09:54:37;99091.50;;;28.73;65.04
7018;BME280;3549;42.162;24.726;2022-09-03T09:57:06;99138.53;;;28.93;63.80
7018;BME280;3549;42.162;24.726;2022-09-03T09:59:33;99096.00;;;28.41;63.74
7018;BME280;3549;42.162;24.726;2022-09-03T10:02:22;99139.59;;;28.87;63.95
7018;BME280;3549;42.162;24.726;2022-09-03T10:04:51;99083.28;;;28.57;64.76
7018;BME280;3549;42.162;24.726;2022-09-03T10:07:30;99141.13;;;29.42;62.39
7018;BME280;3549;42.162;24.726;2022-09-03T10:10:15;99014.16;;;28.48;63.83
7018;BME280;3549;42.162;24.726;2022-09-03T10:12:45;99142.59;;;28.77;64.16
7018;BME280;3549;42.162;24.726;2022-09-03T10:23:24;99081.84;;;29.24;62.25
7018;BME280;3549;42.162;24.726;2022-09-03T10:28:58;99072.94;;;29.53;62.63
7018;BME280;3549;42.162;24.726;2022-09-03T10:34:38;99112.22;;;29.25;63.21
7018;BME280;3549;42.162;24.726;2022-09-03T10:37:28;99118.47;;;29.44;63.61
7018;BME280;3549;42.162;24.726;2022-09-03T10:50:36;98988.97;;;28.97;60.47
7018;BME280;3549;42.162;24.726;2022-09-03T10:56:14;99121.84;;;28.74;62.66
7018;BME280;3549;42.162;24.726;2022-09-03T11:06:53;99118.59;;;29.41;61.14
7018;BME280;3549;42.162;24.726;2022-09-03T11:09:24;99119.81;;;29.54;61.63
7018;BME280;3549;42.162;24.726;2022-09-03T11:11:56;99017.63;;;28.97;62.39
7018;BME280;3549;42.162;24.726;2022-09-03T11:14:39;98945.50;;;28.97;58.63
7018;BME280;3549;42.162;24.726;2022-09-03T11:17:40;99127.50;;;30.25;58.78
7018;BME280;3549;42.162;24.726;2022-09-03T11:20:20;99033.72;;;29.31;59.49
7018;BME280;3549;42.162;24.726;2022-09-03T11:22:48;98921.66;;;28.37;59.85
7018;BME280;3549;42.162;24.726;2022-09-03T11:25:18;99117.94;;;29.10;61.36
7018;BME280;3549;42.162;24.726;2022-09-03T11:27:59;98984.06;;;28.15;62.09
7018;BME280;3549;42.162;24.726;2022-09-03T11:32:59;99127.53;;;28.85;62.64
7018;BME280;3549;42.162;24.726;2022-09-03T11:35:28;99100.53;;;29.35;59.93
7018;BME280;3549;42.162;24.726;2022-09-03T11:38:20;98997.75;;;28.20;60.45
7018;BME280;3549;42.162;24.726;2022-09-03T11:45:48;99121.13;;;29.18;59.65
7018;BME280;3549;42.162;24.726;2022-09-03T11:48:43;98945.03;;;28.63;57.42
7018;BME280;3549;42.162;24.726;2022-09-03T11:51:31;99034.69;;;29.52;57.00
7018;BME280;3549;42.162;24.726;2022-09-03T11:54:23;99080.69;;;29.54;56.79
7018;BME280;3549;42.162;24.726;2022-09-03T11:56:50;99112.50;;;30.72;54.69
7018;BME280;3549;42.162;24.726;2022-09-03T11:59:25;99114.06;;;30.96;54.12
7018;BME280;3549;42.162;24.726;2022-09-03T12:02:00;99033.78;;;30.18;53.78
7018;BME280;3549;42.162;24.726;2022-09-03T12:04:42;99072.81;;;30.43;54.38
7018;BME280;3549;42.162;24.726;2022-09-03T12:13:00;99106.28;;;31.73;51.40
7018;BME280;3549;42.162;24.726;2022-09-03T12:18:08;99124.19;;;31.04;51.50
7018;BME280;3549;42.162;24.726;2022-09-03T12:20:46;99065.91;;;30.82;51.63
7018;BME280;3549;42.162;24.726;2022-09-03T12:23:13;99107.63;;;31.24;49.95
7018;BME280;3549;42.162;24.726;2022-09-03T12:25:51;98912.97;;;29.93;50.13
7018;BME280;3549;42.162;24.726;2022-09-03T12:28:20;99099.94;;;30.60;50.42
7018;BME280;3549;42.162;24.726;2022-09-03T12:30:48;99104.69;;;30.92;50.77
7018;BME280;3549;42.162;24.726;2022-09-03T12:33:20;99094.78;;;31.38;48.89
7018;BME280;3549;42.162;24.726;2022-09-03T12:35:57;99053.09;;;30.76;49.63
7018;BME280;3549;42.162;24.726;2022-09-03T12:38:26;99104.25;;;31.96;48.19
7018;BME280;3549;42.162;24.726;2022-09-03T12:40:54;98723.09;;;29.17;47.53
7018;BME280;3549;42.162;24.726;2022-09-03T12:43:26;98720.16;;;30.04;46.90
7018;BME280;3549;42.162;24.726;2022-09-03T12:45:52;98725.03;;;30.11;45.42
7018;BME280;3549;42.162;24.726;2022-09-03T12:48:19;99092.22;;;31.92;47.06
7018;BME280;3549;42.162;24.726;2022-09-03T12:50:46;98909.94;;;31.18;46.92
7018;BME280;3549;42.162;24.726;2022-09-03T12:53:16;98881.41;;;31.14;46.75
7018;BME280;3549;42.162;24.726;2022-09-03T12:55:48;99085.00;;;32.50;45.51
7018;BME280;3549;42.162;24.726;2022-09-03T12:58:22;99089.47;;;32.83;45.15
7018;BME280;3549;42.162;24.726;2022-09-03T13:01:18;99084.44;;;32.09;46.22
7018;BME280;3549;42.162;24.726;2022-09-03T13:03:54;99088.00;;;33.11;44.63
7018;BME280;3549;42.162;24.726;2022-09-03T13:06:25;99022.41;;;31.00;47.76
7018;BME280;3549;42.162;24.726;2022-09-03T13:09:03;99064.94;;;31.42;47.90
7018;BME280;3549;42.162;24.726;2022-09-03T13:11:34;99076.88;;;30.90;48.57
7018;BME280;3549;42.162;24.726;2022-09-03T13:14:09;99063.28;;;30.20;49.10
7018;BME280;3549;42.162;24.726;2022-09-03T13:32:38;99081.91;;;30.54;48.22
7018;BME280;3549;42.162;24.726;2022-09-03T13:35:13;99085.16;;;31.20;48.56
7018;BME280;3549;42.162;24.726;2022-09-03T13:37:51;98943.28;;;29.53;49.40
7018;BME280;3549;42.162;24.726;2022-09-03T13:40:32;99088.28;;;29.37;51.60
7018;BME280;3549;42.162;24.726;2022-09-03T13:45:50;98998.38;;;30.31;48.47
7018;BME280;3549;42.162;24.726;2022-09-03T13:48:38;98704.06;;;30.50;45.26
7018;BME280;3549;42.162;24.726;2022-09-03T13:51:59;99061.31;;;32.86;45.18
7018;BME280;3549;42.162;24.726;2022-09-03T13:54:33;99090.13;;;32.00;46.70
7018;BME280;3549;42.162;24.726;2022-09-03T13:57:37;99087.31;;;30.08;50.31
7018;BME280;3549;42.162;24.726;2022-09-03T14:00:09;99093.69;;;29.33;53.20
7018;BME280;3549;42.162;24.726;2022-09-03T14:11:03;99092.94;;;30.61;51.26
7018;BME280;3549;42.162;24.726;2022-09-03T14:16:48;99100.47;;;30.26;50.53
7018;BME280;3549;42.162;24.726;2022-09-03T14:22:22;99054.88;;;31.14;48.99
7018;BME280;3549;42.162;24.726;2022-09-03T14:24:58;98920.16;;;30.48;48.13
7018;BME280;3549;42.162;24.726;2022-09-03T14:27:27;98909.38;;;29.10;50.73
7018;BME280;3549;42.162;24.726;2022-09-03T14:29:59;98917.50;;;29.02;50.97
7018;BME280;3549;42.162;24.726;2022-09-03T14:33:09;99107.25;;;30.52;50.60
7018;BME280;3549;42.162;24.726;2022-09-03T14:38:28;99114.94;;;32.46;47.69
7018;BME280;3549;42.162;24.726;2022-09-03T14:44:13;99134.72;;;34.17;42.83
7018;BME280;3549;42.162;24.726;2022-09-03T14:52:12;99117.97;;;31.45;46.73
7018;BME280;3549;42.162;24.726;2022-09-03T14:57:57;99119.66;;;30.04;50.44
7018;BME280;3549;42.162;24.726;2022-09-03T15:00:35;99112.88;;;32.17;46.06
7018;BME280;3549;42.162;24.726;2022-09-03T15:03:15;99106.16;;;32.11;44.82
7018;BME280;3549;42.162;24.726;2022-09-03T15:05:52;99121.41;;;29.81;48.98
7018;BME280;3549;42.162;24.726;2022-09-03T15:11:02;99089.06;;;30.07;48.61
7018;BME280;3549;42.162;24.726;2022-09-03T15:13:59;99048.53;;;31.57;45.45
7018;BME280;3549;42.162;24.726;2022-09-03T15:30:15;99115.69;;;28.50;52.33
7018;BME280;3549;42.162;24.726;2022-09-03T15:33:01;99088.69;;;28.26;53.10
7018;BME280;3549;42.162;24.726;2022-09-03T15:38:43;99130.34;;;27.98;52.83
7018;BME280;3549;42.162;24.726;2022-09-03T15:41:39;99094.97;;;27.64;53.26
7018;BME280;3549;42.162;24.726;2022-09-03T15:44:11;99003.38;;;26.95;53.95
7018;BME280;3549;42.162;24.726;2022-09-03T15:49:26;99004.72;;;26.46;55.08
7018;BME280;3549;42.162;24.726;2022-09-03T15:57:25;99150.34;;;27.36;55.09
7018;BME280;3549;42.162;24.726;2022-09-03T15:59:57;99146.38;;;27.23;55.16
7018;BME280;3549;42.162;24.726;2022-09-03T16:02:32;98975.72;;;26.31;55.37
7018;BME280;3549;42.162;24.726;2022-09-03T16:05:07;98582.84;;;23.79;55.60
7018;BME280;3549;42.162;24.726;2022-09-03T16:10:16;99150.31;;;27.38;55.74
7018;BME280;3549;42.162;24.726;2022-09-03T16:13:02;99149.53;;;27.34;55.57
7018;BME280;3549;42.162;24.726;2022-09-03T16:15:47;99125.69;;;27.20;55.04
7018;BME280;3549;42.162;24.726;2022-09-03T16:18:27;99059.50;;;26.69;55.16
7018;BME280;3549;42.162;24.726;2022-09-03T16:21:25;99149.88;;;27.22;55.38
7018;BME280;3549;42.162;24.726;2022-09-03T16:24:11;99104.88;;;26.56;56.27
7018;BME280;3549;42.162;24.726;2022-09-03T16:29:13;99154.97;;;26.59;57.59
7018;BME280;3549;42.162;24.726;2022-09-03T16:40:38;99173.69;;;26.38;58.58
7018;BME280;3549;42.162;24.726;2022-09-03T16:43:26;99164.72;;;26.14;59.16
7018;BME280;3549;42.162;24.726;2022-09-03T16:51:55;99178.41;;;25.79;59.94
7018;BME280;3549;42.162;24.726;2022-09-03T16:54:56;99181.09;;;25.76;59.84
7018;BME280;3549;42.162;24.726;2022-09-03T16:57:43;99081.09;;;25.22;59.74
7018;BME280;3549;42.162;24.726;2022-09-03T17:00:16;99185.09;;;25.91;59.39
7018;BME280;3549;42.162;24.726;2022-09-03T17:02:49;99192.69;;;26.00;60.17
7018;BME280;3549;42.162;24.726;2022-09-03T17:11:54;99185.03;;;25.96;60.58